createdAt,value
2019-03-08T00:00:39.467Z,998.53
2019-03-08T00:01:39.350Z,998.52
2019-03-08T00:02:39.270Z,998.64
2019-03-08T00:03:39.247Z,998.57
2019-03-08T00:04:39.106Z,998.57
2019-03-08T00:05:39.032Z,998.55
2019-03-08T00:06:38.960Z,998.48
2019-03-08T00:07:38.847Z,998.57
2019-03-08T00:08:38.875Z,998.52
2019-03-08T00:09:38.680Z,998.69
2019-03-08T00:10:38.721Z,998.58
2019-03-08T00:11:38.517Z,998.69
2019-03-08T00:12:38.426Z,998.65
2019-03-08T00:13:38.394Z,998.55
2019-03-08T00:14:38.253Z,998.57
2019-03-08T00:15:38.181Z,998.68
2019-03-08T00:16:38.108Z,998.67
2019-03-08T00:17:38.008Z,998.59
2019-03-08T00:18:37.915Z,998.71
2019-03-08T00:19:37.923Z,998.79
2019-03-08T00:20:37.761Z,998.53
2019-03-08T00:21:37.660Z,998.66
2019-03-08T00:22:37.638Z,998.68
2019-03-08T00:23:37.506Z,998.67
2019-03-08T00:24:37.456Z,998.81
2019-03-08T00:25:37.340Z,998.67
2019-03-08T00:26:37.255Z,998.82
2019-03-08T00:27:37.156Z,998.86
2019-03-08T00:28:37.074Z,998.86
2019-03-08T00:29:37.072Z,998.88
2019-03-08T00:30:36.914Z,998.85
2019-03-08T00:31:36.817Z,998.82
2019-03-08T00:32:36.786Z,998.85
2019-03-08T00:33:36.649Z,998.92
2019-03-08T00:34:36.570Z,998.95
2019-03-08T00:35:36.527Z,998.98
2019-03-08T00:36:36.397Z,998.98
2019-03-08T00:37:36.311Z,999.12
2019-03-08T00:38:37.234Z,999.07
2019-03-08T00:39:36.140Z,999.08
2019-03-08T00:40:36.073Z,999.03
2019-03-08T00:41:35.980Z,999.13
2019-03-08T00:42:35.896Z,999.19
2019-03-08T00:43:35.804Z,999.20
2019-03-08T00:44:35.742Z,999.13
2019-03-08T00:45:35.649Z,999.18
2019-03-08T00:46:35.555Z,999.14
2019-03-08T00:47:35.479Z,999.23
2019-03-08T00:48:35.468Z,999.20
2019-03-08T00:49:35.296Z,999.23
2019-03-08T00:50:35.298Z,999.25
2019-03-08T00:51:35.128Z,999.22
2019-03-08T00:52:35.079Z,999.23
2019-03-08T00:53:34.959Z,999.22
2019-03-08T00:54:34.890Z,999.18
2019-03-08T00:55:34.811Z,999.21
2019-03-08T00:56:34.800Z,999.22
2019-03-08T00:57:34.622Z,999.32
2019-03-08T00:58:34.609Z,999.23
2019-03-08T00:59:34.447Z,999.23
2019-03-08T01:00:34.450Z,999.27
2019-03-08T01:01:34.280Z,999.25
2019-03-08T01:02:35.805Z,999.32
2019-03-08T01:03:34.133Z,999.39
2019-03-08T01:04:34.026Z,999.36
2019-03-08T01:05:33.954Z,999.35
2019-03-08T01:06:33.858Z,999.25
2019-03-08T01:07:33.778Z,999.28
2019-03-08T01:08:33.685Z,999.32
2019-03-08T01:09:33.662Z,999.36
2019-03-08T01:10:33.532Z,999.41
2019-03-08T01:11:33.470Z,999.50
2019-03-08T01:12:33.369Z,999.43
2019-03-08T01:13:33.271Z,999.48
2019-03-08T01:14:33.187Z,999.50
2019-03-08T01:15:33.110Z,999.60
2019-03-08T01:16:33.009Z,999.42
2019-03-08T01:17:33.001Z,999.47
2019-03-08T01:18:32.838Z,999.60
2019-03-08T01:19:32.768Z,999.58
2019-03-08T01:20:32.751Z,999.59
2019-03-08T01:21:32.586Z,999.63
2019-03-08T01:22:32.521Z,999.64
2019-03-08T01:23:32.529Z,999.63
2019-03-08T01:24:32.340Z,999.69
2019-03-08T01:25:32.572Z,999.69
2019-03-08T01:26:32.164Z,999.72
2019-03-08T01:27:32.147Z,999.67
2019-03-08T01:28:31.994Z,999.83
2019-03-08T01:29:31.955Z,999.70
2019-03-08T01:30:31.833Z,999.67
2019-03-08T01:31:31.793Z,999.71
2019-03-08T01:32:31.658Z,999.81
2019-03-08T01:33:31.684Z,999.80
2019-03-08T01:34:31.495Z,999.67
2019-03-08T01:35:31.492Z,999.73
2019-03-08T01:36:31.335Z,999.76
2019-03-08T01:37:31.236Z,999.80
2019-03-08T01:38:31.203Z,999.93
2019-03-08T01:39:31.060Z,999.78
2019-03-08T01:40:30.990Z,999.91
2019-03-08T01:41:30.942Z,999.85
2019-03-08T01:42:30.810Z,1000.01
2019-03-08T01:43:30.728Z,999.90
2019-03-08T01:44:30.732Z,999.82
2019-03-08T01:45:30.554Z,999.88
2019-03-08T01:46:30.570Z,999.91
2019-03-08T01:47:30.385Z,999.91
2019-03-08T01:48:30.352Z,999.88
2019-03-08T01:49:30.221Z,1000.01
2019-03-08T01:50:30.158Z,999.91
2019-03-08T01:51:30.076Z,999.90
2019-03-08T01:52:29.966Z,999.96
2019-03-08T01:53:29.976Z,999.94
2019-03-08T01:54:29.790Z,999.95
2019-03-08T01:55:29.711Z,1000.01
2019-03-08T01:56:29.717Z,999.95
2019-03-08T01:57:29.540Z,1000.05
2019-03-08T01:58:29.454Z,1000.18
2019-03-08T01:59:29.404Z,1000.07
2019-03-08T02:00:29.287Z,1000.10
2019-03-08T02:01:29.253Z,1000.09
2019-03-08T02:02:29.116Z,1000.02
2019-03-08T02:03:29.030Z,1000.06
2019-03-08T02:04:29.024Z,1000.09
2019-03-08T02:05:28.863Z,1000.08
2019-03-08T02:06:28.790Z,1000.19
2019-03-08T02:07:28.698Z,1000.13
2019-03-08T02:08:28.622Z,1000.16
2019-03-08T02:09:28.551Z,1000.15
2019-03-08T02:10:28.438Z,1000.05
2019-03-08T02:11:28.389Z,1000.15
2019-03-08T02:12:28.269Z,1000.16
2019-03-08T02:13:28.267Z,1000.12
2019-03-08T02:14:28.098Z,1000.11
2019-03-08T02:15:28.076Z,1000.13
2019-03-08T02:16:27.946Z,1000.23
2019-03-08T02:17:27.885Z,1000.16
2019-03-08T02:18:27.761Z,1000.28
2019-03-08T02:19:27.675Z,1000.24
2019-03-08T02:20:27.700Z,1000.24
2019-03-08T02:21:27.520Z,1000.27
2019-03-08T02:22:27.425Z,1000.28
2019-03-08T02:23:27.421Z,1000.17
2019-03-08T02:24:27.250Z,1000.30
2019-03-08T02:25:27.226Z,1000.29
2019-03-08T02:26:27.099Z,1000.33
2019-03-08T02:27:27.033Z,1000.25
2019-03-08T02:28:26.913Z,1000.28
2019-03-08T02:29:26.834Z,1000.00
2019-03-08T02:30:27.770Z,1000.31
2019-03-08T02:31:26.672Z,1000.24
2019-03-08T02:32:26.579Z,1000.25
2019-03-08T02:33:26.563Z,1000.24
2019-03-08T02:34:26.407Z,1000.31
2019-03-08T02:35:26.388Z,1000.41
2019-03-08T02:36:26.246Z,1000.41
2019-03-08T02:37:26.190Z,1000.33
2019-03-08T02:38:26.073Z,1000.40
2019-03-08T02:39:26.095Z,1000.38
2019-03-08T02:40:25.896Z,1000.35
2019-03-08T02:41:25.935Z,1000.23
2019-03-08T02:42:25.729Z,1000.35
2019-03-08T02:43:25.643Z,1000.40
2019-03-08T02:44:25.617Z,1000.35
2019-03-08T02:45:25.475Z,1000.38
2019-03-08T02:46:25.404Z,1000.44
2019-03-08T02:47:32.318Z,1000.44
2019-03-08T02:48:25.216Z,1000.48
2019-03-08T02:49:25.148Z,1000.47
2019-03-08T02:50:25.153Z,1000.45
2019-03-08T02:51:24.979Z,1000.51
2019-03-08T02:52:24.896Z,1000.49
2019-03-08T02:53:26.907Z,1000.53
2019-03-08T02:54:24.719Z,1000.45
2019-03-08T02:55:24.625Z,1000.54
2019-03-08T02:56:24.603Z,1000.48
2019-03-08T02:57:24.462Z,1000.61
2019-03-08T02:58:24.368Z,1000.59
2019-03-08T02:59:26.332Z,1000.51
2019-03-08T03:00:24.201Z,1000.62
2019-03-08T03:01:24.167Z,1000.69
2019-03-08T03:02:24.101Z,1000.66
2019-03-08T03:03:23.943Z,1000.53
2019-03-08T03:04:23.874Z,1000.69
2019-03-08T03:05:30.776Z,1000.79
2019-03-08T03:06:23.704Z,1000.75
2019-03-08T03:07:23.622Z,1000.71
2019-03-08T03:08:23.522Z,1000.69
2019-03-08T03:09:23.535Z,1000.83
2019-03-08T03:10:23.353Z,1000.93
2019-03-08T03:11:24.288Z,1000.97
2019-03-08T03:12:23.181Z,1000.98
2019-03-08T03:13:23.148Z,1001.12
2019-03-08T03:14:23.012Z,1001.24
2019-03-08T03:15:22.969Z,1001.20
2019-03-08T03:16:22.854Z,1001.18
2019-03-08T03:17:22.767Z,1001.13
2019-03-08T03:18:22.680Z,1001.08
2019-03-08T03:19:22.586Z,1001.26
2019-03-08T03:20:22.592Z,1001.32
2019-03-08T03:21:22.419Z,1001.33
2019-03-08T03:22:22.347Z,1001.41
2019-03-08T03:23:22.293Z,1001.39
2019-03-08T03:24:22.162Z,1001.32
2019-03-08T03:25:22.081Z,1001.40
2019-03-08T03:26:22.019Z,1001.41
2019-03-08T03:27:21.921Z,1001.44
2019-03-08T03:28:21.821Z,1001.49
2019-03-08T03:29:22.750Z,1001.47
2019-03-08T03:30:21.654Z,1001.53
2019-03-08T03:31:21.637Z,1001.48
2019-03-08T03:32:21.495Z,1001.54
2019-03-08T03:33:21.396Z,1001.52
2019-03-08T03:34:21.312Z,1001.60
2019-03-08T03:35:21.255Z,1001.54
2019-03-08T03:36:21.142Z,1001.70
2019-03-08T03:37:21.113Z,1001.60
2019-03-08T03:38:20.969Z,1001.68
2019-03-08T03:39:20.975Z,1001.73
2019-03-08T03:40:20.798Z,1001.74
2019-03-08T03:41:20.714Z,1001.77
2019-03-08T03:42:20.722Z,1001.78
2019-03-08T03:43:20.543Z,1001.78
2019-03-08T03:44:20.463Z,1001.84
2019-03-08T03:45:20.403Z,1001.78
2019-03-08T03:46:20.286Z,1001.84
2019-03-08T03:47:20.219Z,1001.81
2019-03-08T03:48:20.221Z,1001.89
2019-03-08T03:49:20.040Z,1001.91
2019-03-08T03:50:19.976Z,1001.83
2019-03-08T03:51:19.933Z,1001.92
2019-03-08T03:52:19.811Z,1001.91
2019-03-08T03:53:19.691Z,1001.99
2019-03-08T03:54:19.647Z,1001.98
2019-03-08T03:55:19.523Z,1001.96
2019-03-08T03:56:19.436Z,1001.97
2019-03-08T03:57:19.401Z,1001.98
2019-03-08T03:58:19.269Z,1002.05
2019-03-08T03:59:19.183Z,1002.07
2019-03-08T04:00:19.178Z,1002.00
2019-03-08T04:01:19.012Z,1002.11
2019-03-08T04:02:19.017Z,1002.08
2019-03-08T04:03:18.836Z,1002.11
2019-03-08T04:04:18.797Z,1002.17
2019-03-08T04:05:18.667Z,1002.16
2019-03-08T04:06:18.620Z,1002.12
2019-03-08T04:07:18.510Z,1002.23
2019-03-08T04:08:18.521Z,1002.25
2019-03-08T04:09:18.327Z,1002.25
2019-03-08T04:10:18.336Z,1002.24
2019-03-08T04:11:18.155Z,1002.28
2019-03-08T04:12:18.162Z,1002.25
2019-03-08T04:13:17.983Z,1002.25
2019-03-08T04:14:17.901Z,1002.25
2019-03-08T04:15:17.845Z,1002.29
2019-03-08T04:16:17.727Z,1002.31
2019-03-08T04:17:17.675Z,1002.35
2019-03-08T04:18:17.660Z,1002.41
2019-03-08T04:19:17.472Z,1002.41
2019-03-08T04:20:17.474Z,1002.36
2019-03-08T04:21:17.301Z,1002.43
2019-03-08T04:22:17.310Z,1002.43
2019-03-08T04:23:17.127Z,1002.47
2019-03-08T04:24:17.046Z,1002.51
2019-03-08T04:25:16.996Z,1002.49
2019-03-08T04:26:16.882Z,1002.55
2019-03-08T04:27:16.803Z,1002.54
2019-03-08T04:28:16.808Z,1002.60
2019-03-08T04:29:16.619Z,1002.65
2019-03-08T04:30:16.622Z,1002.65
2019-03-08T04:31:16.443Z,1002.60
2019-03-08T04:32:16.457Z,1002.60
2019-03-08T04:33:16.274Z,1002.65
2019-03-08T04:34:16.193Z,1002.67
2019-03-08T04:35:16.145Z,1002.67
2019-03-08T04:36:16.014Z,1002.69
2019-03-08T04:37:15.945Z,1002.71
2019-03-08T04:38:15.960Z,1002.71
2019-03-08T04:39:15.761Z,1002.73
2019-03-08T04:40:15.772Z,1002.71
2019-03-08T04:41:15.588Z,1002.78
2019-03-08T04:42:15.611Z,1002.79
2019-03-08T04:43:15.418Z,1002.77
2019-03-08T04:44:15.334Z,1002.81
2019-03-08T04:45:15.247Z,1002.78
2019-03-08T04:46:15.196Z,1002.80
2019-03-08T04:47:15.087Z,1002.84
2019-03-08T04:48:14.990Z,1002.88
2019-03-08T04:49:14.905Z,1002.88
2019-03-08T04:50:14.916Z,1002.90
2019-03-08T04:51:14.738Z,1002.88
2019-03-08T04:52:14.670Z,1002.94
2019-03-08T04:53:14.627Z,1002.88
2019-03-08T04:54:14.479Z,1002.95
2019-03-08T04:55:14.435Z,1002.99
2019-03-08T04:56:14.305Z,1002.98
2019-03-08T04:57:14.277Z,1003.00
2019-03-08T04:58:14.136Z,1003.03
2019-03-08T04:59:14.050Z,1003.06
2019-03-08T05:00:14.060Z,1003.05
2019-03-08T05:01:13.880Z,1003.01
2019-03-08T05:02:13.813Z,1003.03
2019-03-08T05:03:13.746Z,1003.04
2019-03-08T05:04:13.624Z,1003.04
2019-03-08T05:05:13.539Z,1003.05
2019-03-08T05:06:13.487Z,1003.06
2019-03-08T05:07:13.380Z,1003.04
2019-03-08T05:08:13.297Z,1002.99
2019-03-08T05:09:13.195Z,1002.99
2019-03-08T05:10:13.109Z,1003.01
2019-03-08T05:11:13.111Z,1003.02
2019-03-08T05:12:12.959Z,1003.05
2019-03-08T05:13:12.861Z,1003.08
2019-03-08T05:14:19.790Z,1003.09
2019-03-08T05:15:12.683Z,1003.12
2019-03-08T05:16:12.595Z,1003.14
2019-03-08T05:17:12.580Z,1003.16
2019-03-08T05:18:12.427Z,1003.13
2019-03-08T05:19:12.342Z,1003.13
2019-03-08T05:20:13.276Z,1003.20
2019-03-08T05:21:12.173Z,1003.23
2019-03-08T05:22:12.118Z,1003.21
2019-03-08T05:23:12.071Z,1003.25
2019-03-08T05:24:11.915Z,1003.28
2019-03-08T05:25:11.829Z,1003.30
2019-03-08T05:26:11.785Z,1003.33
2019-03-08T05:27:11.661Z,1003.30
2019-03-08T05:28:11.588Z,1003.34
2019-03-08T05:29:11.599Z,1003.38
2019-03-08T05:30:11.410Z,1003.42
2019-03-08T05:31:19.294Z,1003.45
2019-03-08T05:32:11.237Z,1003.43
2019-03-08T05:33:11.251Z,1003.49
2019-03-08T05:34:11.067Z,1003.50
2019-03-08T05:35:11.026Z,1003.52
2019-03-08T05:36:10.892Z,1003.51
2019-03-08T05:37:13.756Z,1003.54
2019-03-08T05:38:10.733Z,1003.54
2019-03-08T05:39:10.747Z,1003.56
2019-03-08T05:40:10.551Z,1003.62
2019-03-08T05:41:10.463Z,1003.63
2019-03-08T05:42:10.461Z,1003.68
2019-03-08T05:43:10.307Z,1003.71
2019-03-08T05:44:10.207Z,1003.75
2019-03-08T05:45:10.174Z,1003.76
2019-03-08T05:46:10.042Z,1003.78
2019-03-08T05:47:09.984Z,1003.81
2019-03-08T05:48:09.880Z,1003.84
2019-03-08T05:49:10.788Z,1003.86
2019-03-08T05:50:09.695Z,1003.90
2019-03-08T05:51:09.702Z,1003.91
2019-03-08T05:52:09.527Z,1003.88
2019-03-08T05:53:09.544Z,1003.95
2019-03-08T05:54:09.353Z,1003.97
2019-03-08T05:55:09.269Z,1004.03
2019-03-08T05:56:09.227Z,1004.04
2019-03-08T05:57:09.100Z,1004.02
2019-03-08T05:58:09.030Z,1004.06
2019-03-08T05:59:08.940Z,1004.08
2019-03-08T06:00:08.840Z,1004.11
2019-03-08T06:01:08.756Z,1004.14
2019-03-08T06:02:08.755Z,1004.07
2019-03-08T06:03:08.596Z,1004.17
2019-03-08T06:04:08.502Z,1004.20
2019-03-08T06:05:08.471Z,1004.23
2019-03-08T06:06:08.328Z,1004.25
2019-03-08T06:07:08.277Z,1004.27
2019-03-08T06:08:08.178Z,1004.27
2019-03-08T06:09:08.087Z,1004.34
2019-03-08T06:10:07.987Z,1004.39
2019-03-08T06:11:07.903Z,1004.42
2019-03-08T06:12:07.903Z,1004.45
2019-03-08T06:13:07.756Z,1004.54
2019-03-08T06:14:07.648Z,1004.58
2019-03-08T06:15:07.569Z,1004.60
2019-03-08T06:16:07.520Z,1004.61
2019-03-08T06:17:07.397Z,1004.67
2019-03-08T06:18:08.404Z,1004.74
2019-03-08T06:19:07.217Z,1004.77
2019-03-08T06:20:07.287Z,1004.74
2019-03-08T06:21:07.147Z,1004.84
2019-03-08T06:22:06.971Z,1004.83
2019-03-08T06:23:06.985Z,1004.88
2019-03-08T06:24:06.797Z,1004.88
2019-03-08T06:25:06.711Z,1004.90
2019-03-08T06:26:06.669Z,1004.96
2019-03-08T06:27:06.536Z,1004.94
2019-03-08T06:28:06.467Z,1004.98
2019-03-08T06:29:06.483Z,1004.97
2019-03-08T06:30:06.293Z,1005.11
2019-03-08T06:31:06.293Z,1005.12
2019-03-08T06:32:06.115Z,1005.14
2019-03-08T06:33:06.133Z,1005.19
2019-03-08T06:34:05.937Z,1005.24
2019-03-08T06:35:05.913Z,1005.27
2019-03-08T06:36:05.769Z,1005.29
2019-03-08T06:37:05.758Z,1005.31
2019-03-08T06:38:05.609Z,1005.39
2019-03-08T06:39:05.516Z,1005.44
2019-03-08T06:40:05.462Z,1005.50
2019-03-08T06:41:05.375Z,1005.54
2019-03-08T06:42:05.258Z,1005.65
2019-03-08T06:43:05.207Z,1005.66
2019-03-08T06:44:05.088Z,1005.66
2019-03-08T06:45:05.112Z,1005.68
2019-03-08T06:46:04.963Z,1005.67
2019-03-08T06:47:04.838Z,1005.66
2019-03-08T06:48:04.805Z,1005.65
2019-03-08T06:49:04.663Z,1005.75
2019-03-08T06:50:04.630Z,1005.75
2019-03-08T06:51:04.498Z,1005.80
2019-03-08T06:52:04.458Z,1005.79
2019-03-08T06:53:04.417Z,1005.84
2019-03-08T06:54:04.247Z,1005.88
2019-03-08T06:55:04.157Z,1005.90
2019-03-08T06:56:04.076Z,1005.95
2019-03-08T06:57:03.989Z,1005.95
2019-03-08T06:58:03.910Z,1006.01
2019-03-08T06:59:03.813Z,1006.03
2019-03-08T07:00:03.797Z,1006.05
2019-03-08T07:01:04.086Z,1006.06
2019-03-08T07:02:03.563Z,1006.05
2019-03-08T07:03:03.629Z,1006.07
2019-03-08T07:04:03.407Z,1006.14
2019-03-08T07:05:03.305Z,1006.19
2019-03-08T07:06:03.274Z,1006.26
2019-03-08T07:07:03.140Z,1006.28
2019-03-08T07:08:03.052Z,1006.30
2019-03-08T07:09:03.021Z,1006.34
2019-03-08T07:10:02.883Z,1006.41
2019-03-08T07:11:02.798Z,1006.44
2019-03-08T07:12:02.791Z,1006.48
2019-03-08T07:13:03.688Z,1006.49
2019-03-08T07:14:02.655Z,1006.50
2019-03-08T07:15:02.458Z,1006.51
2019-03-08T07:16:02.428Z,1006.52
2019-03-08T07:17:02.289Z,1006.51
2019-03-08T07:18:11.745Z,1006.56
2019-03-08T07:19:02.136Z,1006.52
2019-03-08T07:20:02.183Z,1006.54
2019-03-08T07:21:01.968Z,1006.59
2019-03-08T07:22:01.939Z,1006.62
2019-03-08T07:23:01.784Z,1006.64
2019-03-08T07:24:02.918Z,1006.68
2019-03-08T07:25:01.611Z,1006.69
2019-03-08T07:26:01.569Z,1006.65
2019-03-08T07:27:01.445Z,1006.68
2019-03-08T07:28:01.472Z,1006.73
2019-03-08T07:29:01.284Z,1006.69
2019-03-08T07:30:01.189Z,1006.72
2019-03-08T07:31:02.204Z,1006.73
2019-03-08T07:32:01.018Z,1006.81
2019-03-08T07:33:00.938Z,1006.84
2019-03-08T07:34:00.871Z,1006.92
2019-03-08T07:35:00.766Z,1006.96
2019-03-08T07:36:00.677Z,1006.96
2019-03-08T07:37:00.709Z,1006.99
2019-03-08T07:38:00.513Z,1007.05
2019-03-08T07:39:00.459Z,1007.13
2019-03-08T07:40:01.449Z,1007.14
2019-03-08T07:41:00.255Z,1007.20
2019-03-08T07:42:00.235Z,1007.23
2019-03-08T07:43:01.211Z,1007.24
2019-03-08T07:44:00.048Z,1007.30
2019-03-08T07:44:59.942Z,1007.30
2019-03-08T07:45:59.833Z,1007.36
2019-03-08T07:46:59.757Z,1007.45
2019-03-08T07:47:59.666Z,1007.47
2019-03-08T07:48:59.579Z,1007.46
2019-03-08T07:49:59.604Z,1007.49
2019-03-08T07:50:59.410Z,1007.53
2019-03-08T07:51:59.325Z,1007.55
2019-03-08T07:52:59.240Z,1007.61
2019-03-08T07:53:59.191Z,1007.53
2019-03-08T07:54:59.091Z,1007.55
2019-03-08T07:55:58.992Z,1007.54
2019-03-08T07:56:58.902Z,1007.53
2019-03-08T07:57:58.855Z,1007.59
2019-03-08T07:58:58.733Z,1007.70
2019-03-08T08:00:02.004Z,1007.74
2019-03-08T08:00:58.570Z,1007.72
2019-03-08T08:01:58.481Z,1007.77
2019-03-08T08:03:03.584Z,1007.80
2019-03-08T08:03:58.314Z,1007.76
2019-03-08T08:04:58.246Z,1007.87
2019-03-08T08:05:58.598Z,1007.93
2019-03-08T08:06:58.060Z,1007.96
2019-03-08T08:07:57.973Z,1007.98
2019-03-08T08:08:57.898Z,1007.87
2019-03-08T08:09:57.830Z,1007.93
2019-03-08T08:10:57.722Z,1007.92
2019-03-08T08:11:57.676Z,1007.93
2019-03-08T08:12:57.554Z,1007.97
2019-03-08T08:13:57.469Z,1008.04
2019-03-08T08:14:57.419Z,1007.99
2019-03-08T08:15:57.298Z,1008.07
2019-03-08T08:16:57.227Z,1008.06
2019-03-08T08:17:57.140Z,1008.06
2019-03-08T08:18:57.047Z,1008.06
2019-03-08T08:19:56.977Z,1008.08
2019-03-08T08:20:56.881Z,1008.11
2019-03-08T08:21:56.967Z,1008.21
2019-03-08T08:22:56.713Z,1008.32
2019-03-08T08:23:56.635Z,1008.35
2019-03-08T08:24:56.578Z,1008.39
2019-03-08T08:25:56.467Z,1008.41
2019-03-08T08:26:56.798Z,1008.26
2019-03-08T08:27:56.293Z,1008.49
2019-03-08T08:28:56.212Z,1008.43
2019-03-08T08:29:56.147Z,1008.53
2019-03-08T08:30:56.049Z,1008.62
2019-03-08T08:31:55.999Z,1008.60
2019-03-08T08:32:55.874Z,1008.64
2019-03-08T08:33:57.831Z,1008.56
2019-03-08T08:34:55.722Z,1008.59
2019-03-08T08:35:55.625Z,1008.68
2019-03-08T08:36:55.599Z,1008.72
2019-03-08T08:37:55.463Z,1008.71
2019-03-08T08:38:55.405Z,1008.83
2019-03-08T08:39:55.304Z,1008.93
2019-03-08T08:40:55.314Z,1009.00
2019-03-08T08:41:55.123Z,1008.96
2019-03-08T08:42:55.120Z,1009.22
2019-03-08T08:43:55.118Z,1009.21
2019-03-08T08:44:56.910Z,1009.20
2019-03-08T08:45:54.789Z,1009.35
2019-03-08T08:46:54.719Z,1008.96
2019-03-08T08:47:54.645Z,1008.96
2019-03-08T08:48:54.543Z,1009.07
2019-03-08T08:49:55.468Z,1009.22
2019-03-08T08:50:54.461Z,1009.09
2019-03-08T08:51:54.300Z,1009.17
2019-03-08T08:52:54.207Z,1009.24
2019-03-08T08:53:54.191Z,1009.51
2019-03-08T08:54:54.067Z,1009.42
2019-03-08T08:55:53.958Z,1009.83
2019-03-08T08:56:53.890Z,1009.82
2019-03-08T08:57:53.791Z,1009.80
2019-03-08T08:58:53.826Z,1009.55
2019-03-08T09:30:27.676Z,1010.56
2019-03-08T09:31:27.393Z,1011.16
2019-03-08T09:32:27.310Z,1009.89
2019-03-08T09:33:27.222Z,1009.92
2019-03-08T09:34:27.267Z,1009.67
2019-03-08T09:35:27.082Z,1009.66
2019-03-08T09:36:27.070Z,1009.92
2019-03-08T09:37:26.911Z,1011.35
2019-03-08T09:38:27.207Z,1010.05
2019-03-08T09:39:26.740Z,1010.11
2019-03-08T09:40:26.732Z,1010.95
2019-03-08T09:41:26.593Z,1010.24
2019-03-08T09:42:26.546Z,1011.55
2019-03-08T09:43:26.416Z,1009.92
2019-03-08T09:44:26.512Z,1010.19
2019-03-08T09:45:26.271Z,1010.08
2019-03-08T09:46:26.196Z,1010.11
2019-03-08T09:47:26.127Z,1010.33
2019-03-08T09:48:26.015Z,1010.22
2019-03-08T09:49:25.938Z,1010.24
2019-03-08T09:50:25.938Z,1010.28
2019-03-08T09:51:25.784Z,1010.10
2019-03-08T09:52:25.687Z,1010.01
2019-03-08T09:53:25.755Z,1010.33
2019-03-08T09:54:25.544Z,1010.14
2019-03-08T09:55:25.455Z,1010.02
2019-03-08T09:56:25.392Z,1010.06
2019-03-08T09:57:25.286Z,1010.18
2019-03-08T09:58:25.200Z,1010.36
2019-03-08T09:59:25.122Z,1010.40
2019-03-08T10:00:25.037Z,1010.41
2019-03-08T10:01:24.982Z,1010.37
2019-03-08T10:02:24.991Z,1010.21
2019-03-08T10:03:24.791Z,1010.13
2019-03-08T10:04:24.717Z,1010.11
2019-03-08T10:05:24.806Z,1010.00
2019-03-08T10:06:24.574Z,1009.95
2019-03-08T10:07:24.482Z,1009.97
2019-03-08T10:08:24.384Z,1010.01
2019-03-08T10:09:24.310Z,1009.97
2019-03-08T10:10:24.438Z,1009.95
2019-03-08T10:11:24.149Z,1010.04
2019-03-08T10:12:24.055Z,1010.00
2019-03-08T10:13:24.039Z,1009.99
2019-03-08T10:14:25.303Z,1010.03
2019-03-08T10:15:23.807Z,1010.06
2019-03-08T10:16:23.886Z,1010.11
2019-03-08T10:17:23.644Z,1010.25
2019-03-08T10:18:23.559Z,1010.33
2019-03-08T10:19:23.670Z,1010.34
2019-03-08T10:20:23.402Z,1010.24
2019-03-08T10:21:23.325Z,1010.20
2019-03-08T10:22:23.279Z,1010.35
2019-03-08T10:23:23.152Z,1010.32
2019-03-08T10:24:23.080Z,1010.32
2019-03-08T10:25:23.312Z,1010.48
2019-03-08T10:26:22.923Z,1010.52
2019-03-08T10:27:22.905Z,1010.68
2019-03-08T10:28:25.110Z,1010.69
2019-03-08T10:29:27.038Z,1010.62
2019-03-08T10:30:33.045Z,1010.75
2019-03-08T10:31:22.499Z,1010.80
2019-03-08T10:32:22.407Z,1010.73
2019-03-08T10:33:22.534Z,1010.63
2019-03-08T10:34:22.239Z,1010.55
2019-03-08T10:35:24.142Z,1010.55
2019-03-08T10:36:22.097Z,1010.53
2019-03-08T10:37:22.152Z,1010.58
2019-03-08T10:38:22.874Z,1010.67
2019-03-08T10:39:21.958Z,1010.93
2019-03-08T10:40:21.757Z,1011.05
2019-03-08T10:41:21.811Z,1011.02
2019-03-08T10:42:21.587Z,1010.83
2019-03-08T10:43:21.576Z,1010.81
2019-03-08T10:44:21.415Z,1010.74
2019-03-08T10:45:21.386Z,1010.78
2019-03-08T10:46:21.262Z,1010.82
2019-03-08T10:47:21.177Z,1010.84
2019-03-08T10:48:21.087Z,1010.89
2019-03-08T10:49:21.004Z,1010.85
2019-03-08T10:50:24.052Z,1010.90
2019-03-08T10:51:20.855Z,1010.95
2019-03-08T10:52:20.765Z,1011.01
2019-03-08T10:53:20.764Z,1011.04
2019-03-08T10:54:20.591Z,1011.08
2019-03-08T10:55:20.511Z,1011.06
2019-03-08T10:56:20.505Z,1011.09
2019-03-08T10:57:20.357Z,1011.02
2019-03-08T10:58:20.266Z,1011.06
2019-03-08T10:59:20.295Z,1011.05
2019-03-08T11:00:20.098Z,1011.14
2019-03-08T11:01:20.046Z,1011.18
2019-03-08T11:02:19.942Z,1011.34
2019-03-08T11:03:19.852Z,1011.85
2019-03-08T11:04:19.768Z,1011.87
2019-03-08T11:05:19.721Z,1011.91
2019-03-08T11:06:19.626Z,1011.75
2019-03-08T11:07:19.635Z,1011.57
2019-03-08T11:08:19.442Z,1011.47
2019-03-08T11:09:19.438Z,1011.43
2019-03-08T11:10:19.290Z,1011.53
2019-03-08T11:11:19.286Z,1011.52
2019-03-08T11:12:19.130Z,1011.48
2019-03-08T11:13:19.060Z,1011.44
2019-03-08T11:14:18.963Z,1011.44
2019-03-08T11:15:24.518Z,1011.67
2019-03-08T11:16:18.806Z,1011.57
2019-03-08T11:17:18.806Z,1011.54
2019-03-08T11:18:18.630Z,1011.50
2019-03-08T11:19:18.583Z,1011.61
2019-03-08T11:20:18.474Z,1011.45
2019-03-08T11:21:18.493Z,1011.41
2019-03-08T11:22:18.322Z,1011.93
2019-03-08T11:23:18.314Z,1012.47
2019-03-08T11:24:18.148Z,1012.60
2019-03-08T11:25:18.062Z,1011.88
2019-03-08T11:26:18.018Z,1011.74
2019-03-08T11:27:17.916Z,1011.66
2019-03-08T11:28:21.175Z,1011.56
2019-03-08T11:29:17.831Z,1011.46
2019-03-08T11:30:17.659Z,1011.49
2019-03-08T11:31:17.644Z,1011.49
2019-03-08T11:32:23.116Z,1012.26
2019-03-08T11:33:17.449Z,1012.16
2019-03-08T11:34:17.337Z,1011.64
2019-03-08T11:35:17.255Z,1012.17
2019-03-08T11:36:17.220Z,1011.34
2019-03-08T11:37:17.108Z,1011.35
2019-03-08T11:38:17.021Z,1011.99
2019-03-08T11:39:17.032Z,1011.97
2019-03-08T11:40:16.847Z,1012.01
2019-03-08T11:41:16.791Z,1012.01
2019-03-08T11:42:16.699Z,1011.93
2019-03-08T11:43:17.622Z,1011.89
2019-03-08T11:44:16.525Z,1011.82
2019-03-08T11:45:16.516Z,1011.96
2019-03-08T11:46:16.364Z,1011.44
2019-03-08T11:47:16.354Z,1011.38
2019-03-08T11:48:17.121Z,1011.91
2019-03-08T11:49:17.151Z,1011.92
2019-03-08T11:50:16.050Z,1011.96
2019-03-08T11:51:15.980Z,1011.87
2019-03-08T11:52:15.896Z,1011.58
2019-03-08T11:53:15.816Z,1012.06
2019-03-08T11:54:15.722Z,1012.04
2019-03-08T11:55:15.658Z,1011.70
2019-03-08T11:56:15.563Z,1011.63
2019-03-08T11:57:15.543Z,1011.61
2019-03-08T11:58:15.415Z,1011.69
2019-03-08T11:59:15.526Z,1011.82
2019-03-08T12:00:15.249Z,1011.76
2019-03-08T12:01:15.161Z,1011.84
2019-03-08T12:02:15.181Z,1012.16
2019-03-08T12:03:15.014Z,1012.04
2019-03-08T12:04:14.924Z,1011.96
2019-03-08T12:05:14.954Z,1011.95
2019-03-08T12:06:14.772Z,1011.61
2019-03-08T12:07:14.805Z,1011.58
2019-03-08T12:08:14.605Z,1011.52
2019-03-08T12:09:14.569Z,1011.57
2019-03-08T12:10:14.440Z,1011.51
2019-03-08T12:11:14.378Z,1011.53
2019-03-08T12:12:14.301Z,1011.52
2019-03-08T12:13:14.397Z,1011.86
2019-03-08T12:14:14.126Z,1011.91
2019-03-08T12:15:14.531Z,1011.90
2019-03-08T12:16:13.990Z,1011.81
2019-03-08T12:17:14.038Z,1011.55
2019-03-08T12:18:13.807Z,1011.57
2019-03-08T12:19:13.814Z,1011.62
2019-03-08T12:20:13.675Z,1011.81
2019-03-08T12:21:13.581Z,1011.87
2019-03-08T12:22:13.664Z,1011.55
2019-03-08T12:23:13.397Z,1011.54
2019-03-08T12:24:13.315Z,1011.76
2019-03-08T12:25:13.248Z,1011.69
2019-03-08T12:26:13.171Z,1011.49
2019-03-08T12:27:13.101Z,1011.65
2019-03-08T12:28:13.009Z,1011.61
2019-03-08T12:29:13.019Z,1011.63
2019-03-08T12:30:12.827Z,1011.95
2019-03-08T12:31:12.757Z,1011.78
2019-03-08T12:32:12.687Z,1012.07
2019-03-08T12:33:12.605Z,1012.05
2019-03-08T12:34:12.510Z,1012.12
2019-03-08T12:35:12.463Z,1012.25
2019-03-08T12:36:12.348Z,1012.18
2019-03-08T12:37:12.292Z,1012.19
2019-03-08T12:38:12.188Z,1012.16
2019-03-08T12:39:12.124Z,1012.21